createdAt,value
2023-05-15T00:02:26.863Z,21.35
2023-05-15T00:04:54.201Z,24.13
2023-05-15T00:07:21.325Z,20.73
2023-05-15T00:09:48.310Z,24.75
2023-05-15T00:12:15.552Z,22.45
2023-05-15T00:14:42.556Z,25.88
2023-05-15T00:17:09.921Z,24.65
2023-05-15T00:19:36.983Z,22.88
2023-05-15T00:22:04.385Z,24.63
2023-05-15T00:24:31.272Z,21.77
2023-05-15T00:27:00.737Z,26.20
2023-05-15T00:29:28.012Z,22.63
2023-05-15T00:31:55.144Z,27.02
2023-05-15T00:34:25.724Z,22.42
2023-05-15T00:36:52.921Z,23.52
2023-05-15T00:39:19.978Z,20.42
2023-05-15T00:41:51.501Z,23.23
2023-05-15T00:44:22.574Z,21.48
2023-05-15T00:46:51.764Z,23.90
2023-05-15T00:49:21.815Z,24.75
2023-05-15T00:51:50.116Z,25.50
2023-05-15T00:54:17.221Z,25.08
2023-05-15T00:56:46.039Z,25.20
2023-05-15T00:59:13.821Z,21.98
2023-05-15T01:01:41.229Z,21.73
2023-05-15T01:04:11.605Z,20.80
2023-05-15T01:06:38.611Z,22.05
2023-05-15T01:09:08.327Z,26.48
2023-05-15T01:11:38.520Z,22.30
2023-05-15T01:14:08.713Z,23.15
2023-05-15T01:16:36.338Z,22.80
2023-05-15T01:19:05.165Z,20.02
2023-05-15T01:22:10.760Z,21.00
2023-05-15T01:25:10.457Z,26.52
2023-05-15T01:27:50.386Z,28.55
2023-05-15T01:30:24.707Z,27.33
2023-05-15T01:35:49.642Z,23.20
2023-05-15T01:38:34.024Z,23.10
2023-05-15T01:41:51.543Z,23.23
2023-05-15T01:44:36.898Z,26.10
2023-05-15T01:47:13.615Z,22.83
2023-05-15T01:49:45.560Z,27.55
2023-05-15T01:52:30.840Z,25.60
2023-05-15T01:55:00.025Z,25.17
2023-05-15T01:57:31.022Z,24.25
2023-05-15T01:59:59.760Z,27.02
2023-05-15T02:02:29.390Z,24.67
2023-05-15T02:04:58.060Z,26.35
2023-05-15T02:07:26.184Z,24.88
2023-05-15T02:09:54.326Z,26.88
2023-05-15T02:12:23.252Z,32.15
2023-05-15T02:14:52.190Z,28.42
2023-05-15T02:17:22.199Z,26.52
2023-05-15T02:19:50.684Z,29.30
2023-05-15T02:22:17.633Z,22.83
2023-05-15T02:24:45.012Z,25.48
2023-05-15T02:27:28.090Z,27.17
2023-05-15T02:30:20.205Z,28.73
2023-05-15T02:33:23.420Z,29.23
2023-05-15T02:36:04.698Z,39.88
2023-05-15T02:38:40.874Z,29.65
2023-05-15T02:41:09.877Z,26.95
2023-05-15T02:43:39.532Z,27.75
2023-05-15T02:46:08.263Z,27.40
2023-05-15T02:48:41.084Z,34.03
2023-05-15T02:51:08.384Z,27.65
2023-05-15T02:53:43.503Z,27.98
2023-05-15T02:56:10.610Z,27.02
2023-05-15T02:58:39.538Z,25.48
2023-05-15T03:01:06.966Z,26.25
2023-05-15T03:03:34.067Z,28.15
2023-05-15T03:06:01.501Z,27.48
2023-05-15T03:08:28.911Z,32.15
2023-05-15T03:10:55.844Z,31.25
2023-05-15T03:13:22.920Z,33.67
2023-05-15T03:15:49.941Z,33.80
2023-05-15T03:18:19.065Z,26.85
2023-05-15T03:20:49.144Z,29.58
2023-05-15T03:23:16.226Z,28.67
2023-05-15T03:25:43.256Z,29.20
2023-05-15T03:28:10.577Z,34.13
2023-05-15T03:30:37.623Z,31.17
2023-05-15T03:33:05.323Z,34.33
2023-05-15T03:35:32.581Z,29.65
2023-05-15T03:37:59.651Z,31.05
2023-05-15T03:40:26.717Z,33.15
2023-05-15T03:42:53.831Z,35.97
2023-05-15T03:45:21.408Z,34.42
2023-05-15T03:47:49.238Z,40.60
2023-05-15T03:50:16.528Z,35.00
2023-05-15T03:52:43.582Z,37.42
2023-05-15T03:55:10.807Z,43.97
2023-05-15T03:57:37.944Z,41.83
2023-05-15T04:00:10.153Z,41.88
2023-05-15T04:02:41.094Z,48.42
2023-05-15T04:05:09.309Z,45.58
2023-05-15T04:07:38.001Z,41.83
2023-05-15T04:10:05.941Z,39.50
2023-05-15T04:12:35.551Z,40.28
2023-05-15T04:15:24.302Z,42.80
2023-05-15T04:17:53.725Z,41.03
2023-05-15T04:20:24.593Z,46.05
2023-05-15T04:22:52.960Z,44.15
2023-05-15T04:25:20.588Z,53.20
2023-05-15T04:27:47.741Z,61.15
2023-05-15T04:30:17.381Z,43.92
2023-05-15T04:32:44.548Z,53.70
2023-05-15T04:35:13.544Z,42.33
2023-05-15T04:37:45.604Z,41.42
2023-05-15T04:40:14.982Z,42.13
2023-05-15T04:42:42.269Z,43.63
2023-05-15T04:45:09.798Z,47.40
2023-05-15T04:47:40.001Z,38.85
2023-05-15T04:50:07.739Z,45.03
2023-05-15T04:52:34.970Z,39.75
2023-05-15T04:55:02.057Z,40.92
2023-05-15T04:57:30.540Z,42.40
2023-05-15T05:00:00.642Z,48.90
2023-05-15T05:02:31.074Z,38.67
2023-05-15T05:04:58.075Z,37.50
2023-05-15T05:07:25.085Z,33.35
2023-05-15T05:09:52.042Z,29.65
2023-05-15T05:12:19.044Z,33.30
2023-05-15T05:14:46.009Z,31.95
2023-05-15T05:17:13.159Z,30.33
2023-05-15T05:19:40.304Z,33.85
2023-05-15T05:22:07.915Z,33.28
2023-05-15T05:24:38.258Z,33.83
2023-05-15T05:27:05.864Z,40.50
2023-05-15T05:29:32.887Z,31.13
2023-05-15T05:31:59.993Z,29.45
2023-05-15T05:34:27.136Z,26.92
2023-05-15T05:36:54.197Z,30.40
2023-05-15T05:39:21.168Z,32.30
2023-05-15T05:41:48.327Z,37.03
2023-05-15T05:44:15.600Z,34.90
2023-05-15T05:46:42.704Z,32.65
2023-05-15T05:49:09.675Z,28.42
2023-05-15T05:51:39.274Z,30.60
2023-05-15T05:54:06.313Z,33.53
2023-05-15T05:56:33.531Z,33.88
2023-05-15T05:59:02.330Z,33.65
2023-05-15T06:01:29.610Z,29.70
2023-05-15T06:03:57.434Z,31.08
2023-05-15T06:06:24.927Z,31.73
2023-05-15T06:08:52.567Z,34.35
2023-05-15T06:11:23.187Z,40.53
2023-05-15T06:13:51.570Z,31.38
2023-05-15T06:16:18.452Z,31.00
2023-05-15T06:18:45.377Z,33.65
2023-05-15T06:21:12.332Z,37.17
2023-05-15T06:23:39.320Z,45.22
2023-05-15T06:26:06.333Z,41.95
2023-05-15T06:28:33.367Z,39.70
2023-05-15T06:31:00.603Z,38.33
2023-05-15T06:33:27.531Z,34.90
2023-05-15T06:35:54.536Z,40.60
2023-05-15T06:38:21.470Z,42.15
2023-05-15T06:40:48.370Z,37.33
2023-05-15T06:43:15.350Z,36.95
2023-05-15T06:45:42.266Z,34.22
2023-05-15T06:48:09.347Z,40.15
2023-05-15T06:50:36.371Z,41.97
2023-05-15T06:53:03.368Z,35.38
2023-05-15T06:55:30.435Z,41.42
2023-05-15T06:57:57.355Z,42.35
2023-05-15T07:00:24.330Z,46.05
2023-05-15T07:02:51.311Z,47.92
2023-05-15T07:05:18.329Z,41.95
2023-05-15T07:07:45.925Z,36.75
2023-05-15T07:10:13.001Z,40.42
2023-05-15T07:12:39.882Z,38.28
2023-05-15T07:15:07.633Z,35.15
2023-05-15T07:17:34.659Z,38.53
2023-05-15T07:20:01.928Z,34.47
2023-05-15T07:22:29.214Z,35.50
2023-05-15T07:24:56.256Z,34.90
2023-05-15T07:27:23.286Z,32.80
2023-05-15T07:29:50.430Z,34.55
2023-05-15T07:32:17.449Z,36.25
2023-05-15T07:34:44.408Z,34.42
2023-05-15T07:37:11.329Z,49.97
2023-05-15T07:39:38.317Z,34.03
2023-05-15T07:42:05.540Z,31.90
2023-05-15T07:44:32.472Z,33.58
2023-05-15T07:46:59.433Z,35.65
2023-05-15T07:49:26.476Z,30.48
2023-05-15T07:51:53.413Z,28.40
2023-05-15T07:54:20.842Z,32.28
2023-05-15T07:56:47.900Z,33.92
2023-05-15T07:59:15.301Z,34.15
2023-05-15T08:01:42.240Z,30.75
2023-05-15T08:04:09.725Z,35.53
2023-05-15T08:06:39.906Z,32.80
2023-05-15T08:09:06.918Z,29.42
2023-05-15T08:11:34.094Z,31.65
2023-05-15T08:14:01.083Z,30.52
2023-05-15T08:16:29.906Z,28.77
2023-05-15T08:19:01.544Z,29.17
2023-05-15T08:21:29.515Z,31.58
2023-05-15T08:23:57.275Z,37.30
2023-05-15T08:26:24.264Z,41.53
2023-05-15T08:28:51.388Z,35.25
2023-05-15T08:31:18.430Z,36.25
2023-05-15T08:33:45.447Z,40.45
2023-05-15T08:36:12.502Z,35.30
2023-05-15T08:38:39.543Z,34.60
2023-05-15T08:41:39.968Z,35.10
2023-05-15T08:44:11.018Z,57.00
2023-05-15T08:46:38.786Z,32.97
2023-05-15T08:49:18.379Z,33.95
2023-05-15T08:51:45.660Z,37.33
2023-05-15T08:54:12.983Z,38.72
2023-05-15T08:56:40.466Z,32.28
2023-05-15T08:59:07.823Z,32.15
2023-05-15T09:01:36.725Z,34.72
2023-05-15T09:04:04.851Z,34.58
2023-05-15T09:06:33.927Z,48.95
2023-05-15T09:09:02.193Z,35.47
2023-05-15T09:11:31.779Z,34.10
2023-05-15T09:14:00.056Z,39.42
2023-05-15T09:16:27.915Z,28.90
2023-05-15T09:18:54.964Z,34.08
2023-05-15T09:21:31.555Z,35.58
2023-05-15T09:24:37.994Z,28.67
2023-05-15T09:27:07.824Z,27.40
2023-05-15T09:29:38.002Z,30.98
2023-05-15T09:32:08.854Z,24.58
2023-05-15T09:34:42.179Z,26.65
2023-05-15T09:37:13.218Z,23.43
2023-05-15T09:39:44.553Z,29.70
2023-05-15T09:42:15.936Z,24.92
2023-05-15T09:44:44.786Z,20.13
2023-05-15T09:47:17.254Z,21.88
2023-05-15T09:49:45.422Z,20.45
2023-05-15T09:52:12.845Z,17.45
2023-05-15T09:54:39.996Z,19.55
2023-05-15T09:57:10.039Z,22.08
2023-05-15T09:59:47.416Z,21.00
2023-05-15T10:02:24.766Z,33.63
2023-05-15T10:04:56.912Z,19.55
2023-05-15T10:07:31.916Z,19.55
2023-05-15T10:10:00.666Z,21.08
2023-05-15T10:12:29.401Z,25.60
2023-05-15T10:14:58.495Z,37.80
2023-05-15T10:17:32.088Z,20.27
2023-05-15T10:20:02.749Z,22.63
2023-05-15T10:22:32.345Z,20.02
2023-05-15T10:25:33.006Z,20.58
2023-05-15T10:28:01.300Z,20.98
2023-05-15T10:30:31.253Z,36.03
2023-05-15T10:33:00.778Z,40.15
2023-05-15T10:35:28.674Z,23.98
2023-05-15T10:37:57.206Z,33.20
2023-05-15T10:40:24.867Z,27.63
2023-05-15T10:42:55.269Z,23.42
2023-05-15T10:45:22.514Z,26.23
2023-05-15T10:47:52.100Z,28.73
2023-05-15T10:50:20.091Z,29.25
2023-05-15T10:52:51.971Z,25.98
2023-05-15T10:55:19.575Z,25.48
2023-05-15T10:57:49.733Z,21.77
2023-05-15T11:00:22.644Z,20.23
2023-05-15T11:02:53.764Z,19.83
2023-05-15T11:05:21.050Z,17.25
2023-05-15T11:08:17.113Z,16.13
2023-05-15T11:10:44.751Z,16.92
2023-05-15T11:13:12.073Z,19.15
2023-05-15T11:15:45.163Z,22.08
2023-05-15T11:18:12.688Z,18.13
2023-05-15T11:20:43.380Z,19.55
2023-05-15T11:23:10.380Z,24.55
2023-05-15T11:25:37.502Z,27.25
2023-05-15T11:28:05.489Z,19.88
2023-05-15T11:30:40.230Z,20.80
2023-05-15T11:33:11.270Z,28.02
2023-05-15T11:35:47.625Z,32.75
2023-05-15T11:38:24.498Z,24.10
2023-05-15T11:40:55.012Z,22.90
2023-05-15T11:43:28.918Z,74.45
2023-05-15T11:46:04.219Z,24.30
2023-05-15T11:48:34.596Z,28.15
2023-05-15T11:51:02.584Z,28.83
2023-05-15T11:53:31.248Z,25.95
2023-05-15T11:55:59.113Z,26.88
2023-05-15T11:58:26.860Z,24.23
2023-05-15T12:00:54.465Z,24.73
2023-05-15T12:03:26.548Z,27.25
2023-05-15T12:05:59.480Z,23.98
2023-05-15T12:08:32.852Z,22.33
2023-05-15T12:11:01.472Z,22.88
2023-05-15T12:13:29.481Z,24.73
2023-05-15T12:15:57.078Z,21.80
2023-05-15T12:18:24.539Z,24.02
2023-05-15T12:20:53.370Z,24.20
2023-05-15T12:23:26.831Z,22.85
2023-05-15T12:26:01.430Z,25.65
2023-05-15T12:28:30.613Z,22.08
2023-05-15T12:30:59.413Z,22.52
2023-05-15T12:33:26.845Z,30.65
2023-05-15T12:36:00.260Z,22.15
2023-05-15T12:38:29.004Z,30.60
2023-05-15T12:40:57.213Z,22.23
2023-05-15T12:43:26.087Z,27.77
2023-05-15T12:45:57.214Z,23.17
2023-05-15T12:48:32.070Z,29.30
2023-05-15T12:51:09.005Z,26.88
2023-05-15T12:53:39.506Z,25.23
2023-05-15T12:56:09.030Z,31.65
2023-05-15T12:58:37.433Z,27.33
2023-05-15T13:01:04.634Z,30.30
2023-05-15T13:03:32.426Z,29.15
2023-05-15T13:06:02.354Z,25.08
2023-05-15T13:08:29.390Z,31.20
2023-05-15T13:10:58.736Z,28.52
2023-05-15T13:13:48.835Z,29.65
2023-05-15T13:16:21.316Z,29.35
2023-05-15T13:18:48.580Z,30.55
2023-05-15T13:21:15.682Z,28.77
2023-05-15T13:23:42.716Z,39.33
2023-05-15T13:26:09.765Z,38.10
2023-05-15T13:28:36.729Z,31.02
2023-05-15T13:31:03.728Z,29.63
2023-05-15T13:33:32.078Z,31.38
2023-05-15T13:35:59.480Z,45.50
2023-05-15T13:38:26.419Z,35.10
2023-05-15T13:40:53.372Z,25.05
2023-05-15T13:43:20.302Z,31.73
2023-05-15T13:45:47.256Z,27.17
2023-05-15T13:48:14.222Z,24.27
2023-05-15T13:50:43.177Z,30.35
2023-05-15T13:53:10.215Z,25.42
2023-05-15T13:55:37.164Z,27.75
2023-05-15T13:58:04.286Z,28.80
2023-05-15T14:00:31.286Z,25.33
2023-05-15T14:02:58.385Z,28.80
2023-05-15T14:05:25.418Z,27.58
2023-05-15T14:07:52.298Z,49.03
2023-05-15T14:10:19.283Z,26.10
2023-05-15T14:12:47.016Z,35.20
2023-05-15T14:15:13.956Z,27.58
2023-05-15T14:17:41.272Z,29.17
2023-05-15T14:20:10.156Z,29.55
2023-05-15T14:22:38.594Z,28.45
2023-05-15T14:25:06.438Z,33.35
2023-05-15T14:27:33.428Z,39.65
2023-05-15T14:30:01.100Z,55.05
2023-05-15T14:32:28.075Z,32.42
2023-05-15T14:34:59.656Z,33.38
2023-05-15T14:37:27.757Z,30.55
2023-05-15T14:39:54.762Z,39.88
2023-05-15T14:42:21.970Z,34.33
2023-05-15T14:44:49.697Z,31.67
2023-05-15T14:47:16.856Z,30.92
2023-05-15T14:49:43.994Z,25.02
2023-05-15T14:52:12.481Z,23.40
2023-05-15T14:54:40.151Z,22.65
2023-05-15T14:57:07.791Z,28.40
2023-05-15T14:59:34.929Z,21.00
2023-05-15T15:02:02.327Z,24.60
2023-05-15T15:04:34.224Z,22.77
2023-05-15T15:07:04.872Z,22.50
2023-05-15T15:09:32.179Z,17.38
2023-05-15T15:11:59.498Z,29.48
2023-05-15T15:14:26.568Z,14.13
2023-05-15T15:16:53.633Z,13.45
2023-05-15T15:19:20.769Z,12.40
2023-05-15T15:21:48.353Z,12.05
2023-05-15T15:24:16.954Z,11.02
2023-05-15T15:26:43.912Z,11.90
2023-05-15T15:29:10.858Z,16.17
2023-05-15T15:31:37.845Z,13.18
2023-05-15T15:34:05.699Z,17.80
2023-05-15T15:36:33.123Z,11.52
2023-05-15T15:39:00.138Z,14.80
2023-05-15T15:41:30.370Z,13.93
2023-05-15T15:43:57.274Z,15.90
2023-05-15T15:46:24.405Z,11.68
2023-05-15T15:48:51.446Z,12.55
2023-05-15T15:51:18.433Z,14.48
2023-05-15T15:53:45.487Z,11.43
2023-05-15T15:56:12.492Z,15.30
2023-05-15T15:58:39.491Z,14.90
2023-05-15T16:01:06.454Z,23.48
2023-05-15T16:04:03.285Z,16.60
2023-05-15T16:06:31.057Z,12.20
2023-05-15T16:08:58.015Z,12.73
2023-05-15T16:11:25.086Z,9.88
2023-05-15T16:13:52.701Z,8.52
2023-05-15T16:16:19.984Z,12.85
2023-05-15T16:18:47.556Z,13.75
2023-05-15T16:21:14.701Z,20.75
2023-05-15T16:23:41.709Z,12.05
2023-05-15T16:26:11.246Z,28.80
2023-05-15T16:28:38.218Z,15.80
2023-05-15T16:31:07.966Z,12.50
2023-05-15T16:33:35.268Z,10.30
2023-05-15T16:36:05.045Z,13.43
2023-05-15T16:38:32.408Z,12.85
2023-05-15T16:40:59.355Z,10.55
2023-05-15T16:43:26.439Z,8.43
2023-05-15T16:45:53.393Z,11.10
2023-05-15T16:48:20.420Z,8.52
2023-05-15T16:50:47.340Z,6.43
2023-05-15T16:53:15.195Z,7.75
2023-05-15T16:55:42.155Z,8.52
2023-05-15T16:58:09.195Z,7.68
2023-05-15T17:00:36.281Z,6.68
2023-05-15T17:03:05.742Z,7.70
2023-05-15T17:05:34.043Z,10.52
2023-05-15T17:08:01.158Z,6.80
2023-05-15T17:10:28.746Z,8.35
2023-05-15T17:12:55.898Z,6.68
2023-05-15T17:15:23.917Z,5.18
2023-05-15T17:17:51.054Z,3.97
2023-05-15T17:20:18.094Z,5.47
2023-05-15T17:22:45.063Z,6.95
2023-05-15T17:25:12.016Z,3.70
2023-05-15T17:27:41.286Z,9.77
2023-05-15T17:30:10.406Z,7.55
2023-05-15T17:32:39.174Z,4.60
2023-05-15T17:35:08.080Z,4.28
2023-05-15T17:37:35.044Z,6.57
2023-05-15T17:40:02.076Z,5.15
2023-05-15T17:42:29.084Z,14.43
2023-05-15T17:44:56.819Z,4.65
2023-05-15T17:47:24.029Z,6.47
2023-05-15T17:49:51.117Z,7.88
2023-05-15T17:52:18.106Z,5.80
2023-05-15T17:54:45.033Z,7.45
2023-05-15T17:57:12.023Z,7.78
2023-05-15T17:59:39.007Z,8.77
2023-05-15T18:02:06.809Z,11.32
2023-05-15T18:04:33.865Z,7.60
2023-05-15T18:07:00.876Z,10.80
2023-05-15T18:09:28.011Z,9.25
2023-05-15T18:11:55.005Z,9.43
2023-05-15T18:14:22.045Z,6.90
2023-05-15T18:16:49.034Z,7.25
2023-05-15T18:19:16.188Z,9.50
2023-05-15T18:21:43.510Z,8.20
2023-05-15T18:24:10.525Z,9.05
2023-05-15T18:26:38.005Z,10.98
2023-05-15T18:29:05.031Z,7.57
2023-05-15T18:31:32.217Z,8.77
2023-05-15T18:34:00.956Z,11.00
2023-05-15T18:36:28.023Z,9.60
2023-05-15T18:38:54.997Z,12.20
2023-05-15T18:41:23.049Z,14.27
2023-05-15T18:43:50.077Z,8.07
2023-05-15T18:46:17.310Z,10.18
2023-05-15T18:48:44.377Z,10.90
2023-05-15T18:51:11.390Z,9.93
2023-05-15T18:53:38.401Z,8.02
2023-05-15T18:56:05.597Z,10.18
2023-05-15T18:58:32.548Z,7.97
2023-05-15T19:01:00.118Z,9.20
2023-05-15T19:03:27.281Z,9.20
2023-05-15T19:05:54.190Z,10.35
2023-05-15T19:08:21.171Z,10.93
2023-05-15T19:10:48.835Z,9.88
2023-05-15T19:13:15.799Z,10.43
2023-05-15T19:15:53.811Z,11.82
2023-05-15T19:18:20.856Z,10.13
2023-05-15T19:20:52.074Z,9.13
2023-05-15T19:23:20.660Z,6.38
2023-05-15T19:25:48.053Z,10.75
2023-05-15T19:28:15.083Z,9.75
2023-05-15T19:30:42.647Z,10.10
2023-05-15T19:33:09.613Z,10.30
2023-05-15T19:35:37.717Z,9.20
2023-05-15T19:38:05.011Z,10.57
2023-05-15T19:40:31.934Z,10.90
2023-05-15T19:42:58.878Z,12.40
2023-05-15T19:45:25.875Z,10.50
2023-05-15T19:47:53.111Z,9.70
2023-05-15T19:50:20.381Z,8.68
2023-05-15T19:52:47.560Z,7.32
2023-05-15T19:55:14.603Z,7.45
2023-05-15T19:57:44.787Z,10.60
2023-05-15T20:00:12.947Z,8.57
2023-05-15T20:02:41.341Z,10.38
2023-05-15T20:05:09.337Z,6.00
2023-05-15T20:07:36.995Z,8.07
2023-05-15T20:10:05.198Z,10.55
2023-05-15T20:12:32.242Z,9.25
2023-05-15T20:14:59.390Z,8.48
2023-05-15T20:17:27.040Z,7.43
2023-05-15T20:19:54.036Z,11.70
2023-05-15T20:22:20.955Z,7.75
2023-05-15T20:24:48.170Z,6.00
2023-05-15T20:27:15.302Z,10.20
2023-05-15T20:29:42.313Z,9.35
2023-05-15T20:32:09.413Z,11.13
2023-05-15T20:34:36.915Z,7.60
2023-05-15T20:37:03.929Z,6.57
2023-05-15T20:39:31.078Z,6.35
2023-05-15T20:42:00.616Z,10.63
2023-05-15T20:44:27.592Z,7.97
2023-05-15T20:46:54.549Z,8.57
2023-05-15T20:49:21.586Z,9.35
2023-05-15T20:51:48.781Z,5.75
2023-05-15T20:54:16.152Z,7.80
2023-05-15T20:56:43.188Z,8.15
2023-05-15T20:59:11.389Z,9.13
2023-05-15T21:01:39.102Z,8.20
2023-05-15T21:04:06.365Z,12.65
2023-05-15T21:06:33.553Z,9.02
2023-05-15T21:09:00.672Z,13.35
2023-05-15T21:11:28.473Z,8.68
2023-05-15T21:13:55.376Z,6.13
2023-05-15T21:16:22.374Z,6.82
2023-05-15T21:18:49.374Z,8.52
2023-05-15T21:21:16.535Z,8.25
2023-05-15T21:23:43.612Z,4.07
2023-05-15T21:26:10.977Z,4.93
2023-05-15T21:28:38.101Z,8.30
2023-05-15T21:31:09.755Z,3.45
2023-05-15T21:33:37.714Z,2.38
2023-05-15T21:36:05.217Z,6.38
2023-05-15T21:38:32.659Z,3.40
2023-05-15T21:41:01.161Z,3.05
2023-05-15T21:43:28.130Z,3.90
2023-05-15T21:45:56.619Z,3.50
2023-05-15T21:48:23.648Z,2.22
2023-05-15T21:50:50.744Z,3.88
2023-05-15T21:53:17.710Z,3.45
2023-05-15T21:55:44.782Z,3.88
2023-05-15T21:58:11.805Z,4.15
2023-05-15T22:00:40.266Z,4.80
2023-05-15T22:03:07.685Z,3.42
2023-05-15T22:05:34.804Z,4.88
2023-05-15T22:08:01.822Z,3.58
2023-05-15T22:10:29.015Z,3.55
2023-05-15T22:12:59.095Z,1.77
2023-05-15T22:15:26.072Z,2.58
2023-05-15T22:17:54.045Z,2.20
2023-05-15T22:20:21.357Z,3.65
2023-05-15T22:22:48.377Z,3.72
2023-05-15T22:25:15.393Z,3.65
2023-05-15T22:27:42.616Z,3.13
2023-05-15T22:30:09.958Z,6.47
2023-05-15T22:32:38.929Z,6.60
2023-05-15T22:35:08.244Z,6.65
2023-05-15T22:37:35.739Z,5.15
2023-05-15T22:40:03.886Z,7.90
2023-05-15T22:42:30.840Z,8.57
2023-05-15T22:44:57.925Z,3.88
2023-05-15T22:47:26.500Z,6.80
2023-05-15T22:49:53.789Z,7.57
2023-05-15T22:52:20.994Z,5.30
2023-05-15T22:54:57.217Z,7.97
2023-05-15T22:57:44.135Z,8.60
2023-05-15T23:00:12.773Z,4.32
2023-05-15T23:02:42.610Z,4.10
2023-05-15T23:05:11.312Z,7.10
2023-05-15T23:07:44.008Z,8.35
2023-05-15T23:10:29.771Z,9.00
2023-05-15T23:12:56.888Z,8.00
2023-05-15T23:15:25.000Z,6.93
2023-05-15T23:17:52.060Z,7.18
2023-05-15T23:20:19.563Z,10.25
2023-05-15T23:22:46.479Z,7.22
2023-05-15T23:25:13.449Z,10.32
2023-05-15T23:27:40.581Z,8.75
2023-05-15T23:30:08.582Z,11.25
2023-05-15T23:32:35.828Z,11.85
2023-05-15T23:35:03.133Z,12.88
2023-05-15T23:37:30.192Z,16.90
2023-05-15T23:39:57.188Z,8.38
2023-05-15T23:42:24.156Z,12.55
2023-05-15T23:44:51.180Z,12.52
2023-05-15T23:47:18.222Z,13.80
2023-05-15T23:49:45.269Z,13.70
2023-05-15T23:52:12.248Z,10.50
2023-05-15T23:54:40.083Z,12.07
2023-05-15T23:57:07.079Z,11.00
2023-05-15T23:59:34.028Z,11.88
